sensor_id;sensor_type;location;lat;lon;timestamp;P1;durP1;ratioP1;P2;durP2;ratioP2
62149;SDS011;48134;53.586;10.610;2023-06-10T00:01:40;8.30;;;3.83;;
62149;SDS011;48134;53.586;10.610;2023-06-10T00:04:09;8.57;;;3.70;;
62149;SDS011;48134;53.586;10.610;2023-06-10T00:06:37;8.50;;;3.60;;
62149;SDS011;48134;53.586;10.610;2023-06-10T00:09:12;10.85;;;3.67;;
62149;SDS011;48134;53.586;10.610;2023-06-10T00:11:40;8.27;;;3.55;;
62149;SDS011;48134;53.586;10.610;2023-06-10T00:14:08;8.27;;;3.50;;
62149;SDS011;48134;53.586;10.610;2023-06-10T00:16:36;10.75;;;3.53;;
62149;SDS011;48134;53.586;10.610;2023-06-10T00:19:05;12.65;;;4.10;;
62149;SDS011;48134;53.586;10.610;2023-06-10T00:21:34;9.57;;;3.40;;
62149;SDS011;48134;53.586;10.610;2023-06-10T00:24:04;8.70;;;3.33;;
62149;SDS011;48134;53.586;10.610;2023-06-10T00:26:38;9.85;;;3.60;;
62149;SDS011;48134;53.586;10.610;2023-06-10T00:29:07;10.10;;;3.50;;
62149;SDS011;48134;53.586;10.610;2023-06-10T00:31:34;10.90;;;3.50;;
62149;SDS011;48134;53.586;10.610;2023-06-10T00:34:07;8.13;;;3.50;;
62149;SDS011;48134;53.586;10.610;2023-06-10T00:36:40;8.90;;;3.40;;
62149;SDS011;48134;53.586;10.610;2023-06-10T00:39:09;7.97;;;3.03;;
62149;SDS011;48134;53.586;10.610;2023-06-10T00:41:39;10.68;;;3.40;;
62149;SDS011;48134;53.586;10.610;2023-06-10T00:44:06;8.60;;;3.40;;
62149;SDS011;48134;53.586;10.610;2023-06-10T00:46:39;10.35;;;3.42;;
62149;SDS011;48134;53.586;10.610;2023-06-10T00:49:07;7.03;;;3.03;;
62149;SDS011;48134;53.586;10.610;2023-06-10T00:51:40;9.67;;;3.47;;
62149;SDS011;48134;53.586;10.610;2023-06-10T00:54:08;11.40;;;3.25;;
62149;SDS011;48134;53.586;10.610;2023-06-10T00:56:36;10.82;;;3.10;;
62149;SDS011;48134;53.586;10.610;2023-06-10T00:59:05;8.82;;;3.20;;
62149;SDS011;48134;53.586;10.610;2023-06-10T01:01:33;7.63;;;2.70;;
62149;SDS011;48134;53.586;10.610;2023-06-10T01:04:01;7.77;;;3.30;;
62149;SDS011;48134;53.586;10.610;2023-06-10T01:06:36;7.25;;;2.88;;
62149;SDS011;48134;53.586;10.610;2023-06-10T01:09:21;11.20;;;3.03;;
62149;SDS011;48134;53.586;10.610;2023-06-10T01:11:52;13.63;;;3.50;;
62149;SDS011;48134;53.586;10.610;2023-06-10T01:14:31;11.43;;;3.00;;
62149;SDS011;48134;53.586;10.610;2023-06-10T01:17:06;10.23;;;3.00;;
62149;SDS011;48134;53.586;10.610;2023-06-10T01:19:40;8.80;;;3.03;;
62149;SDS011;48134;53.586;10.610;2023-06-10T01:22:11;7.22;;;2.88;;
62149;SDS011;48134;53.586;10.610;2023-06-10T01:24:42;8.38;;;2.60;;
62149;SDS011;48134;53.586;10.610;2023-06-10T01:27:12;7.95;;;2.80;;
62149;SDS011;48134;53.586;10.610;2023-06-10T01:29:41;6.30;;;2.78;;
62149;SDS011;48134;53.586;10.610;2023-06-10T01:32:12;9.60;;;2.92;;
62149;SDS011;48134;53.586;10.610;2023-06-10T01:34:41;8.15;;;2.80;;
62149;SDS011;48134;53.586;10.610;2023-06-10T01:37:17;7.00;;;2.40;;
62149;SDS011;48134;53.586;10.610;2023-06-10T01:39:50;7.68;;;2.30;;
62149;SDS011;48134;53.586;10.610;2023-06-10T01:42:23;8.27;;;2.88;;
62149;SDS011;48134;53.586;10.610;2023-06-10T01:44:57;6.38;;;2.42;;
62149;SDS011;48134;53.586;10.610;2023-06-10T01:47:30;7.75;;;2.65;;
62149;SDS011;48134;53.586;10.610;2023-06-10T01:49:59;9.70;;;2.70;;
62149;SDS011;48134;53.586;10.610;2023-06-10T01:52:35;8.10;;;2.43;;
62149;SDS011;48134;53.586;10.610;2023-06-10T01:55:04;6.93;;;2.50;;
62149;SDS011;48134;53.586;10.610;2023-06-10T01:57:32;8.80;;;2.50;;
62149;SDS011;48134;53.586;10.610;2023-06-10T02:00:00;6.72;;;2.70;;
62149;SDS011;48134;53.586;10.610;2023-06-10T02:02:40;7.78;;;2.42;;
62149;SDS011;48134;53.586;10.610;2023-06-10T02:05:14;8.00;;;2.40;;
62149;SDS011;48134;53.586;10.610;2023-06-10T02:07:49;9.25;;;3.03;;
62149;SDS011;48134;53.586;10.610;2023-06-10T02:10:22;9.50;;;2.80;;
62149;SDS011;48134;53.586;10.610;2023-06-10T02:12:50;5.68;;;2.35;;
62149;SDS011;48134;53.586;10.610;2023-06-10T02:15:18;10.07;;;2.40;;
62149;SDS011;48134;53.586;10.610;2023-06-10T02:17:46;10.38;;;2.63;;
62149;SDS011;48134;53.586;10.610;2023-06-10T02:20:20;8.23;;;2.58;;
62149;SDS011;48134;53.586;10.610;2023-06-10T02:22:49;6.72;;;2.38;;
62149;SDS011;48134;53.586;10.610;2023-06-10T02:25:22;7.60;;;2.55;;
62149;SDS011;48134;53.586;10.610;2023-06-10T02:27:56;9.32;;;2.60;;
62149;SDS011;48134;53.586;10.610;2023-06-10T02:30:24;6.35;;;2.05;;
62149;SDS011;48134;53.586;10.610;2023-06-10T02:32:52;7.70;;;2.15;;
62149;SDS011;48134;53.586;10.610;2023-06-10T02:35:20;10.97;;;2.50;;
62149;SDS011;48134;53.586;10.610;2023-06-10T02:37:57;9.98;;;2.65;;
62149;SDS011;48134;53.586;10.610;2023-06-10T02:40:30;6.75;;;2.10;;
62149;SDS011;48134;53.586;10.610;2023-06-10T02:43:03;7.97;;;2.30;;
62149;SDS011;48134;53.586;10.610;2023-06-10T02:45:36;7.55;;;2.35;;
62149;SDS011;48134;53.586;10.610;2023-06-10T02:48:06;10.30;;;2.25;;
62149;SDS011;48134;53.586;10.610;2023-06-10T02:50:39;8.88;;;2.03;;
62149;SDS011;48134;53.586;10.610;2023-06-10T02:53:23;6.05;;;2.00;;
62149;SDS011;48134;53.586;10.610;2023-06-10T02:56:03;8.48;;;2.10;;
62149;SDS011;48134;53.586;10.610;2023-06-10T02:58:31;7.45;;;2.00;;
62149;SDS011;48134;53.586;10.610;2023-06-10T03:01:05;7.82;;;2.40;;
62149;SDS011;48134;53.586;10.610;2023-06-10T03:03:46;9.07;;;2.25;;
62149;SDS011;48134;53.586;10.610;2023-06-10T03:06:19;6.50;;;2.00;;
62149;SDS011;48134;53.586;10.610;2023-06-10T03:08:49;9.18;;;2.03;;
62149;SDS011;48134;53.586;10.610;2023-06-10T03:11:21;6.70;;;1.90;;
62149;SDS011;48134;53.586;10.610;2023-06-10T03:13:50;6.93;;;2.00;;
62149;SDS011;48134;53.586;10.610;2023-06-10T03:16:25;7.45;;;2.20;;
62149;SDS011;48134;53.586;10.610;2023-06-10T03:18:59;5.43;;;1.70;;
62149;SDS011;48134;53.586;10.610;2023-06-10T03:21:28;7.97;;;2.03;;
62149;SDS011;48134;53.586;10.610;2023-06-10T03:24:03;5.50;;;1.63;;
62149;SDS011;48134;53.586;10.610;2023-06-10T03:26:35;6.95;;;2.10;;
62149;SDS011;48134;53.586;10.610;2023-06-10T03:29:09;7.70;;;2.08;;
62149;SDS011;48134;53.586;10.610;2023-06-10T03:31:42;6.70;;;1.90;;
62149;SDS011;48134;53.586;10.610;2023-06-10T03:34:15;7.72;;;1.80;;
62149;SDS011;48134;53.586;10.610;2023-06-10T03:36:48;7.00;;;1.90;;
62149;SDS011;48134;53.586;10.610;2023-06-10T03:39:23;7.40;;;1.90;;
62149;SDS011;48134;53.586;10.610;2023-06-10T03:41:51;5.82;;;1.70;;
62149;SDS011;48134;53.586;10.610;2023-06-10T03:44:25;8.27;;;2.00;;
62149;SDS011;48134;53.586;10.610;2023-06-10T03:46:54;6.35;;;1.80;;
62149;SDS011;48134;53.586;10.610;2023-06-10T03:49:28;6.85;;;1.83;;
62149;SDS011;48134;53.586;10.610;2023-06-10T03:52:01;6.97;;;1.77;;
62149;SDS011;48134;53.586;10.610;2023-06-10T03:54:36;8.07;;;1.63;;
62149;SDS011;48134;53.586;10.610;2023-06-10T03:57:04;8.73;;;2.33;;
62149;SDS011;48134;53.586;10.610;2023-06-10T03:59:32;7.72;;;1.73;;
62149;SDS011;48134;53.586;10.610;2023-06-10T04:02:00;7.57;;;1.83;;
62149;SDS011;48134;53.586;10.610;2023-06-10T04:04:33;7.35;;;1.80;;
62149;SDS011;48134;53.586;10.610;2023-06-10T04:07:06;7.25;;;1.80;;
62149;SDS011;48134;53.586;10.610;2023-06-10T04:09:36;6.57;;;1.73;;
62149;SDS011;48134;53.586;10.610;2023-06-10T04:12:09;8.85;;;2.00;;
62149;SDS011;48134;53.586;10.610;2023-06-10T04:14:42;6.00;;;1.55;;
62149;SDS011;48134;53.586;10.610;2023-06-10T04:17:15;8.43;;;1.90;;
62149;SDS011;48134;53.586;10.610;2023-06-10T04:19:43;6.20;;;1.50;;
62149;SDS011;48134;53.586;10.610;2023-06-10T04:22:16;8.80;;;1.80;;
62149;SDS011;48134;53.586;10.610;2023-06-10T04:24:51;7.80;;;1.80;;
62149;SDS011;48134;53.586;10.610;2023-06-10T04:27:19;8.20;;;2.00;;
62149;SDS011;48134;53.586;10.610;2023-06-10T04:29:47;6.25;;;1.73;;
62149;SDS011;48134;53.586;10.610;2023-06-10T04:32:19;7.83;;;1.70;;
62149;SDS011;48134;53.586;10.610;2023-06-10T04:34:53;8.48;;;1.70;;
62149;SDS011;48134;53.586;10.610;2023-06-10T04:37:20;7.45;;;1.80;;
62149;SDS011;48134;53.586;10.610;2023-06-10T04:39:55;10.73;;;1.90;;
62149;SDS011;48134;53.586;10.610;2023-06-10T04:42:29;6.78;;;2.00;;
62149;SDS011;48134;53.586;10.610;2023-06-10T04:45:02;6.95;;;1.90;;
62149;SDS011;48134;53.586;10.610;2023-06-10T04:47:36;9.15;;;1.70;;
62149;SDS011;48134;53.586;10.610;2023-06-10T04:50:10;8.57;;;1.65;;
62149;SDS011;48134;53.586;10.610;2023-06-10T04:52:43;6.87;;;1.63;;
62149;SDS011;48134;53.586;10.610;2023-06-10T04:55:18;5.90;;;1.70;;
62149;SDS011;48134;53.586;10.610;2023-06-10T04:57:46;9.00;;;1.90;;
62149;SDS011;48134;53.586;10.610;2023-06-10T05:00:14;7.50;;;1.85;;
62149;SDS011;48134;53.586;10.610;2023-06-10T05:02:42;8.98;;;1.63;;
62149;SDS011;48134;53.586;10.610;2023-06-10T05:05:16;6.07;;;1.58;;
62149;SDS011;48134;53.586;10.610;2023-06-10T05:07:44;7.10;;;1.60;;
62149;SDS011;48134;53.586;10.610;2023-06-10T05:10:12;7.20;;;2.00;;
62149;SDS011;48134;53.586;10.610;2023-06-10T05:12:41;7.80;;;1.73;;
62149;SDS011;48134;53.586;10.610;2023-06-10T05:15:14;6.43;;;1.57;;
62149;SDS011;48134;53.586;10.610;2023-06-10T05:17:42;6.72;;;1.75;;
62149;SDS011;48134;53.586;10.610;2023-06-10T05:20:10;6.75;;;1.95;;
62149;SDS011;48134;53.586;10.610;2023-06-10T05:22:38;6.80;;;1.80;;
62149;SDS011;48134;53.586;10.610;2023-06-10T05:25:10;7.45;;;1.65;;
62149;SDS011;48134;53.586;10.610;2023-06-10T05:27:44;4.78;;;1.45;;
62149;SDS011;48134;53.586;10.610;2023-06-10T05:30:12;6.22;;;1.60;;
62149;SDS011;48134;53.586;10.610;2023-06-10T05:32:45;6.57;;;1.50;;
62149;SDS011;48134;53.586;10.610;2023-06-10T05:35:18;5.15;;;1.48;;
62149;SDS011;48134;53.586;10.610;2023-06-10T05:37:46;7.72;;;1.50;;
62149;SDS011;48134;53.586;10.610;2023-06-10T05:40:13;6.80;;;1.67;;
62149;SDS011;48134;53.586;10.610;2023-06-10T05:42:48;5.47;;;1.50;;
62149;SDS011;48134;53.586;10.610;2023-06-10T05:45:21;7.15;;;1.60;;
62149;SDS011;48134;53.586;10.610;2023-06-10T05:47:53;6.45;;;1.70;;
62149;SDS011;48134;53.586;10.610;2023-06-10T05:50:27;5.80;;;1.60;;
62149;SDS011;48134;53.586;10.610;2023-06-10T05:52:59;6.15;;;1.45;;
62149;SDS011;48134;53.586;10.610;2023-06-10T05:55:32;8.75;;;1.63;;
62149;SDS011;48134;53.586;10.610;2023-06-10T05:58:06;7.67;;;1.63;;
62149;SDS011;48134;53.586;10.610;2023-06-10T06:00:36;5.50;;;1.40;;
62149;SDS011;48134;53.586;10.610;2023-06-10T06:03:05;6.55;;;1.80;;
62149;SDS011;48134;53.586;10.610;2023-06-10T06:05:38;7.90;;;2.05;;
62149;SDS011;48134;53.586;10.610;2023-06-10T06:08:06;5.90;;;1.50;;
62149;SDS011;48134;53.586;10.610;2023-06-10T06:10:34;5.88;;;1.63;;
62149;SDS011;48134;53.586;10.610;2023-06-10T06:13:02;7.68;;;1.60;;
62149;SDS011;48134;53.586;10.610;2023-06-10T06:15:36;8.27;;;1.70;;
62149;SDS011;48134;53.586;10.610;2023-06-10T06:18:09;6.15;;;1.50;;
62149;SDS011;48134;53.586;10.610;2023-06-10T06:20:42;7.03;;;1.80;;
62149;SDS011;48134;53.586;10.610;2023-06-10T06:23:10;6.32;;;1.67;;
62149;SDS011;48134;53.586;10.610;2023-06-10T06:25:43;6.55;;;1.95;;
62149;SDS011;48134;53.586;10.610;2023-06-10T06:28:15;7.60;;;1.70;;
62149;SDS011;48134;53.586;10.610;2023-06-10T06:30:46;11.63;;;2.25;;
62149;SDS011;48134;53.586;10.610;2023-06-10T06:33:19;11.93;;;2.13;;
62149;SDS011;48134;53.586;10.610;2023-06-10T06:35:46;7.57;;;1.80;;
62149;SDS011;48134;53.586;10.610;2023-06-10T06:38:14;6.45;;;1.77;;
62149;SDS011;48134;53.586;10.610;2023-06-10T06:40:42;6.73;;;1.90;;
62149;SDS011;48134;53.586;10.610;2023-06-10T06:43:15;7.27;;;1.90;;
62149;SDS011;48134;53.586;10.610;2023-06-10T06:46:16;8.68;;;1.92;;
62149;SDS011;48134;53.586;10.610;2023-06-10T06:48:44;9.13;;;2.17;;
62149;SDS011;48134;53.586;10.610;2023-06-10T06:51:12;6.82;;;1.77;;
62149;SDS011;48134;53.586;10.610;2023-06-10T06:53:45;8.20;;;1.73;;
62149;SDS011;48134;53.586;10.610;2023-06-10T06:56:14;6.57;;;1.77;;
62149;SDS011;48134;53.586;10.610;2023-06-10T06:58:41;7.18;;;2.03;;
62149;SDS011;48134;53.586;10.610;2023-06-10T07:01:09;8.75;;;1.95;;
62149;SDS011;48134;53.586;10.610;2023-06-10T07:03:43;8.00;;;1.90;;
62149;SDS011;48134;53.586;10.610;2023-06-10T07:06:16;7.68;;;2.00;;
62149;SDS011;48134;53.586;10.610;2023-06-10T07:08:49;6.95;;;2.10;;
62149;SDS011;48134;53.586;10.610;2023-06-10T07:11:22;7.30;;;1.88;;
62149;SDS011;48134;53.586;10.610;2023-06-10T07:13:54;7.38;;;1.98;;
62149;SDS011;48134;53.586;10.610;2023-06-10T07:16:27;8.77;;;2.13;;
62149;SDS011;48134;53.586;10.610;2023-06-10T07:19:01;9.33;;;2.40;;
62149;SDS011;48134;53.586;10.610;2023-06-10T07:21:29;6.80;;;2.00;;
62149;SDS011;48134;53.586;10.610;2023-06-10T07:24:04;8.48;;;2.20;;
62149;SDS011;48134;53.586;10.610;2023-06-10T07:26:36;10.00;;;2.30;;
62149;SDS011;48134;53.586;10.610;2023-06-10T07:29:09;9.45;;;2.30;;
62149;SDS011;48134;53.586;10.610;2023-06-10T07:31:42;8.57;;;2.13;;
62149;SDS011;48134;53.586;10.610;2023-06-10T07:34:11;7.10;;;2.05;;
62149;SDS011;48134;53.586;10.610;2023-06-10T07:36:39;9.30;;;2.50;;
62149;SDS011;48134;53.586;10.610;2023-06-10T07:39:12;6.18;;;2.20;;
62149;SDS011;48134;53.586;10.610;2023-06-10T07:41:42;6.40;;;2.03;;
62149;SDS011;48134;53.586;10.610;2023-06-10T07:44:15;6.63;;;2.20;;
62149;SDS011;48134;53.586;10.610;2023-06-10T07:46:48;7.85;;;2.38;;
62149;SDS011;48134;53.586;10.610;2023-06-10T07:49:22;6.50;;;2.35;;
62149;SDS011;48134;53.586;10.610;2023-06-10T07:51:50;9.55;;;2.60;;
62149;SDS011;48134;53.586;10.610;2023-06-10T07:54:17;9.73;;;2.50;;
62149;SDS011;48134;53.586;10.610;2023-06-10T07:56:46;8.38;;;2.70;;
62149;SDS011;48134;53.586;10.610;2023-06-10T07:59:19;8.27;;;2.47;;
62149;SDS011;48134;53.586;10.610;2023-06-10T08:01:52;7.50;;;2.33;;
62149;SDS011;48134;53.586;10.610;2023-06-10T08:04:32;8.23;;;2.40;;
62149;SDS011;48134;53.586;10.610;2023-06-10T08:07:01;7.82;;;2.25;;
62149;SDS011;48134;53.586;10.610;2023-06-10T08:09:34;8.63;;;2.87;;
62149;SDS011;48134;53.586;10.610;2023-06-10T08:12:03;9.20;;;2.38;;
62149;SDS011;48134;53.586;10.610;2023-06-10T08:14:30;6.82;;;2.35;;
62149;SDS011;48134;53.586;10.610;2023-06-10T08:17:03;9.67;;;2.60;;
62149;SDS011;48134;53.586;10.610;2023-06-10T08:19:39;8.67;;;2.60;;
62149;SDS011;48134;53.586;10.610;2023-06-10T08:22:11;7.20;;;2.45;;
62149;SDS011;48134;53.586;10.610;2023-06-10T08:24:39;7.88;;;2.70;;
62149;SDS011;48134;53.586;10.610;2023-06-10T08:27:12;9.67;;;2.73;;
62149;SDS011;48134;53.586;10.610;2023-06-10T08:29:40;7.95;;;2.40;;
62149;SDS011;48134;53.586;10.610;2023-06-10T08:32:08;7.80;;;2.80;;
62149;SDS011;48134;53.586;10.610;2023-06-10T08:34:42;8.73;;;2.60;;
62149;SDS011;48134;53.586;10.610;2023-06-10T08:37:10;8.45;;;2.53;;
62149;SDS011;48134;53.586;10.610;2023-06-10T08:39:38;9.23;;;2.63;;
62149;SDS011;48134;53.586;10.610;2023-06-10T08:42:11;9.35;;;3.17;;
62149;SDS011;48134;53.586;10.610;2023-06-10T08:44:46;9.02;;;2.60;;
62149;SDS011;48134;53.586;10.610;2023-06-10T08:47:19;8.98;;;2.63;;
62149;SDS011;48134;53.586;10.610;2023-06-10T08:49:53;10.57;;;2.90;;
62149;SDS011;48134;53.586;10.610;2023-06-10T08:52:23;8.33;;;2.70;;
62149;SDS011;48134;53.586;10.610;2023-06-10T08:54:55;7.55;;;3.10;;
62149;SDS011;48134;53.586;10.610;2023-06-10T08:57:25;9.07;;;3.05;;
62149;SDS011;48134;53.586;10.610;2023-06-10T08:59:55;10.00;;;2.95;;
62149;SDS011;48134;53.586;10.610;2023-06-10T09:02:28;8.38;;;3.20;;
62149;SDS011;48134;53.586;10.610;2023-06-10T09:05:04;9.43;;;3.28;;
62149;SDS011;48134;53.586;10.610;2023-06-10T09:07:32;8.77;;;3.10;;
62149;SDS011;48134;53.586;10.610;2023-06-10T09:10:02;11.10;;;3.58;;
62149;SDS011;48134;53.586;10.610;2023-06-10T09:12:33;9.43;;;2.97;;
62149;SDS011;48134;53.586;10.610;2023-06-10T09:15:01;7.65;;;2.80;;
62149;SDS011;48134;53.586;10.610;2023-06-10T09:17:29;9.52;;;3.10;;
62149;SDS011;48134;53.586;10.610;2023-06-10T09:20:03;8.20;;;3.20;;
62149;SDS011;48134;53.586;10.610;2023-06-10T09:22:36;7.13;;;3.22;;
62149;SDS011;48134;53.586;10.610;2023-06-10T09:25:11;11.70;;;3.30;;
62149;SDS011;48134;53.586;10.610;2023-06-10T09:27:45;8.93;;;3.63;;
62149;SDS011;48134;53.586;10.610;2023-06-10T09:30:25;8.27;;;3.40;;
62149;SDS011;48134;53.586;10.610;2023-06-10T09:32:53;9.05;;;3.13;;
62149;SDS011;48134;53.586;10.610;2023-06-10T09:35:24;8.70;;;3.30;;
62149;SDS011;48134;53.586;10.610;2023-06-10T09:37:52;7.13;;;3.10;;
62149;SDS011;48134;53.586;10.610;2023-06-10T09:40:20;10.07;;;3.42;;
62149;SDS011;48134;53.586;10.610;2023-06-10T09:42:52;7.75;;;3.25;;
62149;SDS011;48134;53.586;10.610;2023-06-10T09:45:28;9.90;;;2.95;;
62149;SDS011;48134;53.586;10.610;2023-06-10T09:48:01;8.43;;;3.10;;
62149;SDS011;48134;53.586;10.610;2023-06-10T09:50:34;10.13;;;3.60;;
62149;SDS011;48134;53.586;10.610;2023-06-10T09:53:06;9.32;;;3.47;;
62149;SDS011;48134;53.586;10.610;2023-06-10T09:55:40;9.07;;;3.30;;
62149;SDS011;48134;53.586;10.610;2023-06-10T09:58:13;8.70;;;3.40;;
62149;SDS011;48134;53.586;10.610;2023-06-10T10:00:48;8.45;;;3.25;;
62149;SDS011;48134;53.586;10.610;2023-06-10T10:03:21;9.07;;;3.15;;
62149;SDS011;48134;53.586;10.610;2023-06-10T10:05:58;6.82;;;3.00;;
62149;SDS011;48134;53.586;10.610;2023-06-10T10:08:27;8.02;;;3.35;;
62149;SDS011;48134;53.586;10.610;2023-06-10T10:10:56;13.00;;;3.40;;
62149;SDS011;48134;53.586;10.610;2023-06-10T10:13:29;9.20;;;3.30;;
62149;SDS011;48134;53.586;10.610;2023-06-10T10:16:07;10.88;;;3.67;;
62149;SDS011;48134;53.586;10.610;2023-06-10T10:18:38;8.07;;;3.70;;
62149;SDS011;48134;53.586;10.610;2023-06-10T10:21:13;11.17;;;3.97;;
62149;SDS011;48134;53.586;10.610;2023-06-10T10:23:48;8.40;;;3.40;;
62149;SDS011;48134;53.586;10.610;2023-06-10T10:26:20;9.30;;;3.72;;
62149;SDS011;48134;53.586;10.610;2023-06-10T10:28:58;8.00;;;3.38;;
62149;SDS011;48134;53.586;10.610;2023-06-10T10:31:31;8.50;;;3.55;;
62149;SDS011;48134;53.586;10.610;2023-06-10T10:34:06;8.77;;;3.40;;
62149;SDS011;48134;53.586;10.610;2023-06-10T10:36:40;8.30;;;3.65;;
62149;SDS011;48134;53.586;10.610;2023-06-10T10:39:14;8.50;;;3.40;;
62149;SDS011;48134;53.586;10.610;2023-06-10T10:41:42;8.90;;;3.50;;
62149;SDS011;48134;53.586;10.610;2023-06-10T10:44:10;11.45;;;3.72;;
62149;SDS011;48134;53.586;10.610;2023-06-10T10:46:44;9.25;;;3.85;;
62149;SDS011;48134;53.586;10.610;2023-06-10T10:49:17;7.78;;;3.60;;
62149;SDS011;48134;53.586;10.610;2023-06-10T10:51:56;10.52;;;3.60;;
62149;SDS011;48134;53.586;10.610;2023-06-10T10:54:28;7.15;;;3.50;;
62149;SDS011;48134;53.586;10.610;2023-06-10T10:57:15;10.85;;;4.15;;
62149;SDS011;48134;53.586;10.610;2023-06-10T10:59:53;10.93;;;3.90;;
62149;SDS011;48134;53.586;10.610;2023-06-10T11:02:32;7.93;;;3.90;;
62149;SDS011;48134;53.586;10.610;2023-06-10T11:05:01;8.65;;;4.00;;
62149;SDS011;48134;53.586;10.610;2023-06-10T11:07:37;9.00;;;4.07;;
62149;SDS011;48134;53.586;10.610;2023-06-10T11:10:08;9.82;;;4.40;;
62149;SDS011;48134;53.586;10.610;2023-06-10T11:12:50;11.07;;;3.75;;
62149;SDS011;48134;53.586;10.610;2023-06-10T11:15:24;9.30;;;3.75;;
62149;SDS011;48134;53.586;10.610;2023-06-10T11:18:08;9.10;;;3.83;;
62149;SDS011;48134;53.586;10.610;2023-06-10T11:20:45;8.70;;;3.80;;
62149;SDS011;48134;53.586;10.610;2023-06-10T11:23:40;8.73;;;3.80;;
62149;SDS011;48134;53.586;10.610;2023-06-10T11:26:12;7.78;;;3.97;;
62149;SDS011;48134;53.586;10.610;2023-06-10T11:28:40;11.77;;;4.70;;
62149;SDS011;48134;53.586;10.610;2023-06-10T11:31:18;7.95;;;3.67;;
62149;SDS011;48134;53.586;10.610;2023-06-10T11:33:53;8.88;;;3.88;;
62149;SDS011;48134;53.586;10.610;2023-06-10T11:36:26;9.00;;;3.70;;
62149;SDS011;48134;53.586;10.610;2023-06-10T11:39:01;8.93;;;3.63;;
62149;SDS011;48134;53.586;10.610;2023-06-10T11:41:35;8.33;;;3.73;;
62149;SDS011;48134;53.586;10.610;2023-06-10T11:44:06;8.80;;;3.90;;
62149;SDS011;48134;53.586;10.610;2023-06-10T11:46:35;8.00;;;3.65;;
62149;SDS011;48134;53.586;10.610;2023-06-10T11:49:07;8.07;;;3.60;;
62149;SDS011;48134;53.586;10.610;2023-06-10T11:51:41;8.02;;;3.55;;
62149;SDS011;48134;53.586;10.610;2023-06-10T11:54:16;9.73;;;3.95;;
62149;SDS011;48134;53.586;10.610;2023-06-10T11:56:49;9.50;;;4.28;;
62149;SDS011;48134;53.586;10.610;2023-06-10T11:59:22;11.15;;;3.92;;
62149;SDS011;48134;53.586;10.610;2023-06-10T12:01:54;8.90;;;3.88;;
62149;SDS011;48134;53.586;10.610;2023-06-10T12:04:22;10.75;;;3.80;;
62149;SDS011;48134;53.586;10.610;2023-06-10T12:06:50;10.25;;;4.00;;
62149;SDS011;48134;53.586;10.610;2023-06-10T12:09:20;8.88;;;3.78;;
62149;SDS011;48134;53.586;10.610;2023-06-10T12:11:54;7.93;;;3.85;;
62149;SDS011;48134;53.586;10.610;2023-06-10T12:17:15;8.38;;;3.72;;
62149;SDS011;48134;53.586;10.610;2023-06-10T12:19:47;10.53;;;4.37;;
62149;SDS011;48134;53.586;10.610;2023-06-10T12:22:20;9.70;;;3.95;;
62149;SDS011;48134;53.586;10.610;2023-06-10T12:24:59;8.95;;;4.20;;
62149;SDS011;48134;53.586;10.610;2023-06-10T12:27:27;9.77;;;4.07;;
62149;SDS011;48134;53.586;10.610;2023-06-10T12:29:56;10.32;;;3.95;;
62149;SDS011;48134;53.586;10.610;2023-06-10T12:32:35;9.18;;;4.10;;
62149;SDS011;48134;53.586;10.610;2023-06-10T12:35:09;11.52;;;4.10;;
62149;SDS011;48134;53.586;10.610;2023-06-10T12:37:42;9.07;;;4.18;;
62149;SDS011;48134;53.586;10.610;2023-06-10T12:40:16;7.65;;;3.70;;
62149;SDS011;48134;53.586;10.610;2023-06-10T12:42:44;8.63;;;3.97;;
62149;SDS011;48134;53.586;10.610;2023-06-10T12:45:12;11.98;;;3.95;;
62149;SDS011;48134;53.586;10.610;2023-06-10T12:47:45;7.65;;;3.90;;
62149;SDS011;48134;53.586;10.610;2023-06-10T12:50:17;7.05;;;3.78;;
62149;SDS011;48134;53.586;10.610;2023-06-10T12:52:46;7.28;;;3.72;;
62149;SDS011;48134;53.586;10.610;2023-06-10T12:55:13;8.05;;;3.97;;
62149;SDS011;48134;53.586;10.610;2023-06-10T12:57:51;8.68;;;3.47;;
62149;SDS011;48134;53.586;10.610;2023-06-10T13:00:24;12.02;;;3.28;;
62149;SDS011;48134;53.586;10.610;2023-06-10T13:03:01;8.95;;;3.30;;
62149;SDS011;48134;53.586;10.610;2023-06-10T13:05:34;6.47;;;2.88;;
62149;SDS011;48134;53.586;10.610;2023-06-10T13:08:04;9.43;;;3.38;;
62149;SDS011;48134;53.586;10.610;2023-06-10T13:10:32;7.97;;;3.17;;
62149;SDS011;48134;53.586;10.610;2023-06-10T13:13:06;7.70;;;3.25;;
62149;SDS011;48134;53.586;10.610;2023-06-10T13:15:36;10.27;;;3.15;;
62149;SDS011;48134;53.586;10.610;2023-06-10T13:18:04;9.85;;;2.90;;
62149;SDS011;48134;53.586;10.610;2023-06-10T13:20:32;6.90;;;2.50;;
62149;SDS011;48134;53.586;10.610;2023-06-10T13:23:00;7.15;;;2.30;;
62149;SDS011;48134;53.586;10.610;2023-06-10T13:25:28;6.30;;;2.25;;
62149;SDS011;48134;53.586;10.610;2023-06-10T13:27:55;7.75;;;2.80;;
62149;SDS011;48134;53.586;10.610;2023-06-10T13:30:25;6.35;;;2.17;;
62149;SDS011;48134;53.586;10.610;2023-06-10T13:32:58;9.05;;;2.65;;
62149;SDS011;48134;53.586;10.610;2023-06-10T13:35:31;7.72;;;2.33;;
62149;SDS011;48134;53.586;10.610;2023-06-10T13:38:04;11.50;;;2.65;;
62149;SDS011;48134;53.586;10.610;2023-06-10T13:40:38;14.95;;;2.47;;
62149;SDS011;48134;53.586;10.610;2023-06-10T13:43:06;7.30;;;2.22;;
62149;SDS011;48134;53.586;10.610;2023-06-10T13:45:42;12.50;;;2.50;;
62149;SDS011;48134;53.586;10.610;2023-06-10T13:48:10;5.38;;;1.98;;
62149;SDS011;48134;53.586;10.610;2023-06-10T13:50:43;9.98;;;2.40;;
62149;SDS011;48134;53.586;10.610;2023-06-10T13:53:12;10.85;;;2.63;;
62149;SDS011;48134;53.586;10.610;2023-06-10T13:55:45;7.75;;;2.13;;
62149;SDS011;48134;53.586;10.610;2023-06-10T13:58:13;6.53;;;2.08;;
62149;SDS011;48134;53.586;10.610;2023-06-10T14:00:42;10.38;;;2.63;;
62149;SDS011;48134;53.586;10.610;2023-06-10T14:03:15;12.35;;;2.40;;
62149;SDS011;48134;53.586;10.610;2023-06-10T14:05:44;6.75;;;2.38;;
62149;SDS011;48134;53.586;10.610;2023-06-10T14:08:12;7.30;;;2.05;;
62149;SDS011;48134;53.586;10.610;2023-06-10T14:10:40;10.88;;;2.60;;
62149;SDS011;48134;53.586;10.610;2023-06-10T14:13:16;15.25;;;2.50;;
62149;SDS011;48134;53.586;10.610;2023-06-10T14:15:45;10.13;;;2.35;;
62149;SDS011;48134;53.586;10.610;2023-06-10T14:18:18;10.23;;;2.20;;
62149;SDS011;48134;53.586;10.610;2023-06-10T14:20:46;6.65;;;2.40;;
62149;SDS011;48134;53.586;10.610;2023-06-10T14:23:18;10.00;;;2.55;;
62149;SDS011;48134;53.586;10.610;2023-06-10T14:25:46;8.02;;;2.17;;
62149;SDS011;48134;53.586;10.610;2023-06-10T14:28:19;9.85;;;2.55;;
62149;SDS011;48134;53.586;10.610;2023-06-10T14:30:49;10.45;;;2.50;;
62149;SDS011;48134;53.586;10.610;2023-06-10T14:33:17;8.48;;;2.20;;
62149;SDS011;48134;53.586;10.610;2023-06-10T14:35:49;5.72;;;1.95;;
62149;SDS011;48134;53.586;10.610;2023-06-10T14:38:17;7.20;;;2.03;;
62149;SDS011;48134;53.586;10.610;2023-06-10T14:40:50;8.95;;;2.30;;
62149;SDS011;48134;53.586;10.610;2023-06-10T14:43:18;6.97;;;2.03;;
62149;SDS011;48134;53.586;10.610;2023-06-10T14:45:46;5.88;;;1.90;;
62149;SDS011;48134;53.586;10.610;2023-06-10T14:48:15;6.30;;;2.28;;
62149;SDS011;48134;53.586;10.610;2023-06-10T14:50:43;7.65;;;2.40;;
62149;SDS011;48134;53.586;10.610;2023-06-10T14:53:22;6.47;;;2.10;;
62149;SDS011;48134;53.586;10.610;2023-06-10T14:55:50;9.00;;;2.20;;
62149;SDS011;48134;53.586;10.610;2023-06-10T14:58:17;11.25;;;2.28;;
62149;SDS011;48134;53.586;10.610;2023-06-10T15:00:45;5.70;;;2.40;;
62149;SDS011;48134;53.586;10.610;2023-06-10T15:03:13;5.75;;;2.42;;